Aviation Digital Data Service (ADDS)

Output produced by METARs form (1314 UTC 15 November 2018)
found at http://www.aviationweather.gov/metar/data/
 
EPZG 151300Z 11003KT 060V150 2800 BR OVC003 07/07 Q1032
TAF EPZG 151130Z 1512/1521 08006KT 1400 BR BKN002 
     BECMG 1512/1515 5000 BR SCT009 
     BECMG 1515/1518 2500 BR
       
EPKK 151300Z 03006KT 9999 FEW022 BKN046 09/04 Q1030
TAF EPKK 151130Z 1512/1612 03006KT 9999 BKN033 
     TEMPO 1521/1609 4000 SHRA BKN008 BKN013CB 
     BECMG 1600/1602 09012KT
       
TAF EPDE 151100Z 1512/1521 34010KT 9999 SCT013 BKN040 
     BECMG 1515/1517 02008KT 
     PROB40 1512/1518 BKN015
       
EPSC 151300Z 14007KT 7000 SCT005 BKN006 07/07 Q1032
TAF EPSC 151130Z 1512/1612 14007KT 3500 BR OVC002 
     BECMG 1512/1515 5000 BR BKN007 BKN015 
     PROB40 
     TEMPO 1517/1602 2000 BR BKN002
       
EPRZ 151300Z 32007KT 9999 FEW016CB SCT030 08/05 Q1029
TAF EPRZ 151130Z 1512/1612 34010KT 9999 BKN033 
     TEMPO 1512/1603 4000 SHRA BKN008 BKN013CB 
     BECMG 1515/1518 07012KT
       
TAF AMD EPKS 151206Z 1512/1521 10004KT 8000 BKN033 
     PROB40 1516/1521 5000 BR
       
EPPO 151300Z 11008KT 9999 BKN040 10/03 Q1032 R10/19//95
TAF EPPO 151130Z 1512/1612 10006KT 9999 BKN040 
     PROB40 
     TEMPO 1523/1609 3500 BR BKN011
       
EPLL 151300Z 03005KT 350V060 9999 FEW037 BKN044 09/03 Q1032
TAF EPLL 151130Z 1512/1612 03008KT 9999 BKN027 
     TEMPO 1518/1522 4000 BR 
     BECMG 1520/1523 09010KT 
     PROB40 1520/1607 BKN010
       
EPWA 151300Z 03007KT 360V060 9999 FEW017 SCT046 10/06 Q1032 NOSIG
TAF EPWA 151130Z 1512/1612 02010KT 9999 BKN025 
     BECMG 1519/1521 09010KT 
     BECMG 1521/1524 BKN010 
     PROB30 1600/1607 3000 BR BKN003
       
EPKT 151300Z 06007KT 9999 SCT028 OVC032 08/02 Q1030
TAF EPKT 151130Z 1512/1612 03006KT 9999 BKN033 
     BECMG 1600/1602 09012KT 
     TEMPO 1600/1606 4000 RA BR BKN013
       
EPGD 151300Z 18004KT 140V220 9999 FEW026 SCT037 10/05 Q1033
TAF EPGD 151130Z 1512/1612 VRB03KT 9999 BKN040 
     TEMPO 1517/1607 3000 BR BKN007 
     PROB40 1520/1606 0800 FG BKN002 
     BECMG 1607/1610 14010KT
       
EPWR 151300Z 12006KT 9999 FEW008 08/05 Q1032
TAF EPWR 151130Z 1512/1612 11006KT 8000 BKN006 
     BECMG 1512/1514 BKN025 
     TEMPO 1522/1609 2500 BR BKN003
       
TAF EPSN 151100Z 1512/1521 15005KT 3500 BR BKN004 BKN010 
     BECMG 1513/1516 8000 SCT006 BKN012
       
EPBY 151300Z 14003KT 9999 OVC038 10/06 Q1033
TAF EPBY 151130Z 1512/1612 VRB02KT 9999 BKN045 
     TEMPO 1517/1604 3000 BR BKN007 
     BECMG 1601/1604 10010KT
       
EPSY 151300Z 05004KT 020V090 9999 FEW020 SCT039 09/06 Q1033
TAF EPSY 151130Z 1512/1521 05005KT 9999 SCT030